Mount Vernon, Iowa
Current Conditions -  °F | °C
As of 1:52 AM on Saturday 20 Dec 2014 (Local Time) from KCID Reporting Station
Overcast Overcast  
Wind Chill: 22°   Ceiling: 2300
Heat Index: 29°   Visibility: 8mi
Dew Point: 24°   Wind: 7mph
Humidity: 82%   Direction: 150°SSE
Pressure: 30.21"   Gusts: NA
Location:  41.92°N, 91.42°W
Report Text: KCID 200752Z AUTO 15006KT 8SM OVC023 M02/M04 A3021 RMK AO2 SLP241 T10171044 $
Loading
Personal Weather Stations






























Interactive Weather Map New forecast layout! Learn more

10-Day Weather Forecast

Advertisements
Track Severe Weather on mobile